Time;durP1;ratioP1;P1;durP2;ratioP2;P2;SDS_P1;SDS_P2;PMS_P1;PMS_P2;Temp;Humidity;BMP_temperature;BMP_pressure;BME280_temperature;BME280_humidity;BME280_pressure;Samples;Min_cycle;Max_cycle;Signal;HPM_P1;HPM_P2
2022/05/24 00:00:38;;;;;;;18.67;10.30;;;;;;;5.61;100.00;99167.05;1675995;84;21085;-63
2022/05/24 00:03:04;;;;;;;22.20;11.93;;;;;;;5.65;100.00;99160.08;1691125;84;21087;-63
2022/05/24 00:05:32;;;;;;;;;;;;;;;5.62;100.00;99157.35;1716000;83;21083;-63
2022/05/24 00:07:58;;;;;;;22.93;11.55;;;;;;;5.58;100.00;99163.50;1688869;84;20146;-63
2022/05/24 00:10:29;;;;;;;18.12;10.65;;;;;;;5.45;100.00;99174.99;1714732;84;21051;-63
2022/05/24 00:12:56;;;;;;;22.27;11.80;;;;;;;5.38;100.00;99169.50;1752644;81;20963;-63
2022/05/24 00:15:30;;;;;;;;;;;;;;;5.33;100.00;99176.17;1750070;81;21030;-63
2022/05/24 00:18:10;;;;;;;22.85;10.82;;;;;;;5.29;100.00;99169.11;1722220;81;20139;-63
2022/05/24 00:20:43;;;;;;;17.85;10.50;;;;;;;5.20;100.00;99171.98;1749601;80;21614;-63
2022/05/24 00:23:10;;;;;;;20.32;11.35;;;;;;;5.16;100.00;99164.63;1742951;81;21431;-64
2022/05/24 00:25:39;;;;;;;;;;;;;;;5.08;100.00;99163.17;1747968;81;21114;-63
2022/05/24 00:28:07;;;;;;;22.48;11.45;;;;;;;5.02;100.00;99170.92;1752315;82;20142;-64
2022/05/24 00:30:34;;;;;;;18.57;11.45;;;;;;;4.89;100.00;99163.98;1749575;81;21109;-63
2022/05/24 00:33:02;;;;;;;21.52;10.93;;;;;;;4.90;100.00;99169.67;1751618;81;21506;-63
2022/05/24 00:35:28;;;;;;;21.25;11.22;;;;;;;4.95;100.00;99177.85;1747012;81;21083;-63
2022/05/24 00:37:55;;;;;;;17.50;11.10;;;;;;;4.97;100.00;99170.84;1752108;82;21012;-62
2022/05/24 00:40:40;;;;;;;;;;;;;;;5.01;100.00;99180.89;1719992;82;21522;-62
2022/05/24 00:43:53;;;;;;;19.62;10.60;;;;;;;5.03;100.00;99180.09;1749962;80;20159;-62
2022/05/24 00:46:24;;;;;;;19.92;11.18;;;;;;;4.95;100.00;99179.73;1742316;81;21130;-63
2022/05/24 00:48:58;;;;;;;17.92;11.12;;;;;;;4.85;100.00;99178.24;1724363;82;20988;-62
2022/05/24 00:51:33;;;;;;;16.93;10.38;;;;;;;4.81;100.00;99182.49;1747991;81;21078;-62
2022/05/24 00:54:00;;;;;;;18.23;10.88;;;;;;;4.82;100.00;99188.15;1751020;81;21032;-63
2022/05/24 00:56:47;;;;;;;19.57;10.38;;;;;;;4.86;100.00;99187.41;1741379;81;21045;-63
2022/05/24 00:59:25;;;;;;;19.87;10.20;;;;;;;4.90;100.00;99195.83;1750618;81;21015;-63
2022/05/24 01:01:51;;;;;;;14.50;10.93;;;;;;;4.90;100.00;99193.13;1738733;80;21617;-62
2022/05/24 01:04:19;;;;;;;24.92;10.60;;;;;;;4.87;100.00;99205.77;1710300;83;21071;-63
2022/05/24 01:06:48;;;;;;;18.07;11.18;;;;;;;4.81;100.00;99201.37;1746880;81;21089;-62
2022/05/24 01:09:23;;;;;;;18.62;11.55;;;;;;;4.80;100.00;99199.73;1741725;82;20977;-63
2022/05/24 01:11:54;;;;;;;18.80;11.20;;;;;;;4.82;100.00;99198.41;1739948;80;21534;-62
2022/05/24 01:14:22;;;;;;;23.47;11.70;;;;;;;4.86;100.00;99194.69;1745029;81;22215;-63
2022/05/24 01:16:52;;;;;;;21.27;11.78;;;;;;;4.85;100.00;99193.86;1748819;80;21067;-64
2022/05/24 01:19:41;;;;;;;21.48;12.45;;;;;;;4.83;100.00;99196.53;1727447;82;20983;-63
2022/05/24 01:22:34;;;;;;;20.72;12.90;;;;;;;4.77;100.00;99196.18;1748886;80;21043;-63
2022/05/24 01:25:16;;;;;;;23.18;12.53;;;;;;;4.70;100.00;99196.88;1731377;81;21022;-62
2022/05/24 01:27:43;;;;;;;19.27;11.78;;;;;;;4.70;100.00;99192.31;1751388;81;21415;-63
2022/05/24 01:30:10;;;;;;;19.92;12.35;;;;;;;4.74;100.00;99197.50;1751651;81;21005;-63
2022/05/24 01:38:12;;;;;;;20.82;11.85;;;;;;;4.78;100.00;99190.52;1739527;81;20967;-63
2022/05/24 01:40:39;;;;;;;21.37;12.07;;;;;;;4.71;100.00;99187.73;1751177;80;21042;-64
2022/05/24 01:43:07;;;;;;;20.80;12.25;;;;;;;4.62;100.00;99190.02;1751013;81;21051;-63
2022/05/24 01:45:39;;;;;;;16.95;10.60;;;;;;;4.61;100.00;99190.25;1744877;81;21067;-63
2022/05/24 01:48:11;;;;;;;23.98;11.90;;;;;;;4.60;100.00;99198.08;1751967;81;21478;-63
2022/05/24 01:50:37;;;;;;;23.42;11.38;;;;;;;4.55;100.00;99202.85;1713252;83;21083;-64
2022/05/24 01:53:27;;;;;;;18.20;10.00;;;;;;;4.49;100.00;99201.14;1744255;81;21045;-63
2022/05/24 01:55:57;;;;;;;19.10;10.70;;;;;;;4.49;100.00;99198.45;1752362;81;21532;-63
2022/05/24 01:58:26;;;;;;;22.52;10.88;;;;;;;4.46;100.00;99198.39;1704728;81;21232;-63
2022/05/24 02:00:57;;;;;;;17.73;9.75;;;;;;;4.43;100.00;99206.97;1756712;80;21035;-62
2022/05/24 02:03:25;;;;;;;17.87;10.20;;;;;;;4.41;100.00;99207.75;1748006;80;21023;-62
2022/05/24 02:05:54;;;;;;;21.85;11.38;;;;;;;4.41;100.00;99213.67;1732201;81;21047;-63
2022/05/24 02:08:20;;;;;;;21.70;11.45;;;;;;;4.42;100.00;99216.13;1758968;81;21037;-63
2022/05/24 02:10:59;;;;;;;16.87;10.70;;;;;;;4.43;100.00;99211.53;1758598;80;21103;-62
2022/05/24 02:13:31;;;;;;;19.62;11.75;;;;;;;4.39;100.00;99213.90;1742673;81;21419;-62
2022/05/24 02:16:00;;;;;;;22.87;11.78;;;;;;;4.31;100.00;99206.77;1747942;80;21142;-62
2022/05/24 02:18:26;;;;;;;25.57;11.40;;;;;;;4.31;100.00;99216.20;1757064;81;20975;-63
2022/05/24 02:20:53;;;;;;;;;;;;;;;4.33;100.00;99213.54;1721165;82;21535;-62
2022/05/24 02:23:20;;;;;;;21.00;11.97;;;;;;;4.38;100.00;99217.68;1687140;85;20139;-63
2022/05/24 02:25:52;;;;;;;;;;;;;;;4.41;100.00;99210.98;1714512;82;21615;-63
2022/05/24 02:28:21;;;;;;;23.30;11.30;;;;;;;4.49;100.00;99217.31;1725460;82;20128;-62
2022/05/24 02:30:55;;;;;;;26.15;13.62;;;;;;;4.51;100.00;99216.00;1721729;83;21110;-62
2022/05/24 02:33:23;;;;;;;29.20;13.28;;;;;;;4.60;100.00;99212.91;1700131;83;20992;-62
2022/05/24 02:35:50;;;;;;;28.20;14.35;;;;;;;4.66;100.00;99224.05;1692177;84;21602;-62
2022/05/24 02:38:17;;;;;;;26.42;13.75;;;;;;;4.75;100.00;99227.95;1693912;84;21014;-61
2022/05/24 02:43:32;;;;;;;26.70;13.85;;;;;;;4.94;100.00;99224.77;1723828;82;21116;-62
2022/05/24 02:45:58;;;;;;;22.55;12.00;;;;;;;5.04;100.00;99224.08;1722785;82;21067;-63
2022/05/24 02:48:25;;;;;;;;;;;;;;;5.10;100.00;99219.03;1734462;82;21541;-63
2022/05/24 02:50:52;;;;;;;25.05;13.75;;;;;;;5.11;100.00;99219.85;1720516;82;20129;-63
2022/05/24 02:53:20;;;;;;;25.77;13.93;;;;;;;5.03;100.00;99225.14;1720505;82;21041;-62
2022/05/24 02:55:47;;;;;;;32.90;15.85;;;;;;;5.11;100.00;99219.85;1714936;82;21525;-63
2022/05/24 02:58:14;;;;;;;38.67;18.15;;;;;;;5.20;100.00;99230.52;1722875;82;21435;-63
2022/05/24 03:00:42;;;;;;;44.05;19.87;;;;;;;5.27;100.00;99238.72;1672767;85;21150;-63
2022/05/24 03:03:08;;;;;;;42.65;19.98;;;;;;;5.34;100.00;99238.01;1741090;82;21023;-63
2022/05/24 03:05:35;;;;;;;35.95;18.15;;;;;;;5.38;100.00;99242.38;1724956;82;21102;-63
2022/05/24 03:10:50;;;;;;;38.63;17.50;;;;;;;5.38;100.00;99229.70;1744262;81;21102;-63
2022/05/24 03:16:11;;;;;;;47.10;20.08;;;;;;;5.62;100.00;99247.81;1745567;81;21034;-63
2022/05/24 03:18:39;;;;;;;49.75;19.05;;;;;;;5.73;100.00;99251.45;1709962;82;21012;-63
2022/05/24 03:21:06;;;;;;;41.28;18.50;;;;;;;5.82;100.00;99251.28;1741972;81;21567;-62
2022/05/24 03:23:33;;;;;;;34.33;14.98;;;;;;;5.89;100.00;99255.98;1744847;82;20956;-63
2022/05/24 03:26:00;;;;;;;;;;;;;;;5.96;100.00;99252.55;1726996;81;21543;-63
2022/05/24 03:28:27;;;;;;;24.95;11.70;;;;;;;6.08;100.00;99248.36;1749575;82;20109;-64
2022/05/24 03:30:54;;;;;;;24.77;12.63;;;;;;;6.24;100.00;99248.78;1746214;81;21581;-63
2022/05/24 03:33:20;;;;;;;25.32;11.83;;;;;;;6.49;100.00;99256.61;1747134;82;20965;-64
2022/05/24 03:35:47;;;;;;;;;;;;;;;6.80;100.00;99250.91;1748789;81;21023;-63
2022/05/24 03:38:13;;;;;;;23.62;12.90;;;;;;;7.15;100.00;99250.38;1741103;81;20138;-63
2022/05/24 03:40:41;;;;;;;23.25;13.20;;;;;;;7.48;100.00;99244.59;1744589;81;21561;-62
2022/05/24 03:43:12;;;;;;;21.60;13.80;;;;;;;7.94;100.00;99244.23;1745545;82;21418;-63
2022/05/24 03:45:38;;;;;;;28.02;14.20;;;;;;;8.42;100.00;99245.74;1745153;81;21067;-63
2022/05/24 03:48:07;;;;;;;23.45;13.85;;;;;;;8.84;100.00;99233.81;1740972;81;20987;-63
2022/05/24 03:50:34;;;;;;;24.85;14.47;;;;;;;9.24;100.00;99229.69;1745692;81;21147;-64
2022/05/24 03:53:01;;;;;;;26.50;14.03;;;;;;;9.62;100.00;99228.20;1725676;82;21055;-63
2022/05/24 03:55:28;;;;;;;;;;;;;;;9.93;100.00;99230.23;1744457;81;21151;-64
2022/05/24 03:58:02;;;;;;;25.43;14.78;;;;;;;10.22;100.00;99229.02;1672515;85;20144;-64
2022/05/24 04:00:35;;;;;;;28.27;15.93;;;;;;;10.32;100.00;99227.05;1741856;81;21098;-64
2022/05/24 04:03:03;;;;;;;25.60;14.70;;;;;;;10.54;100.00;99225.27;1739441;82;21059;-66
2022/05/24 04:05:31;;;;;;;27.73;15.18;;;;;;;10.79;100.00;99229.70;1737209;81;21168;-64
2022/05/24 04:07:59;;;;;;;24.57;14.65;;;;;;;11.04;100.00;99217.77;1730196;81;21014;-64
2022/05/24 04:10:29;;;;;;;23.57;14.30;;;;;;;11.32;100.00;99224.56;1730330;81;21115;-64
2022/05/24 04:12:57;;;;;;;25.68;15.68;;;;;;;11.58;100.00;99221.01;1731194;82;21035;-63
2022/05/24 04:15:24;;;;;;;21.82;13.85;;;;;;;11.72;100.00;99219.23;1733374;81;21091;-64
2022/05/24 04:17:54;;;;;;;23.12;14.45;;;;;;;11.85;100.00;99228.05;1730261;81;21499;-64
2022/05/24 04:20:22;;;;;;;25.80;13.80;;;;;;;12.06;100.00;99227.78;1739822;81;21095;-64
2022/05/24 04:22:48;;;;;;;22.07;14.23;;;;;;;12.26;100.00;99227.48;1748456;81;21051;-65
2022/05/24 04:25:15;;;;;;;27.45;14.45;;;;;;;12.53;100.00;99232.30;1692688;82;21066;-64
2022/05/24 04:27:42;;;;;;;23.92;14.18;;;;;;;12.73;100.00;99235.51;1727903;81;21476;-65
2022/05/24 04:30:10;;;;;;;23.42;13.65;;;;;;;12.79;100.00;99233.49;1738487;81;21020;-64
2022/05/24 04:32:39;;;;;;;27.40;15.00;;;;;;;12.94;100.00;99234.61;1728526;82;21425;-65
2022/05/24 04:35:06;;;;;;;22.32;14.20;;;;;;;13.12;100.00;99237.07;1731219;81;20956;-65
2022/05/24 04:37:33;;;;;;;23.67;15.53;;;;;;;13.29;100.00;99228.55;1735719;81;21003;-64
2022/05/24 04:40:03;;;;;;;23.87;14.28;;;;;;;13.37;100.00;99237.98;1738625;81;21552;-64
2022/05/24 04:42:29;;;;;;;24.92;14.55;;;;;;;13.42;100.00;99229.70;1740431;81;20995;-65
2022/05/24 04:44:59;;;;;;;25.08;14.47;;;;;;;13.58;100.00;99239.22;1731090;82;20976;-65
2022/05/24 04:47:29;;;;;;;22.87;14.45;;;;;;;13.78;100.00;99235.28;1739124;82;21114;-65
2022/05/24 04:49:58;;;;;;;20.45;13.50;;;;;;;13.94;100.00;99242.86;1691487;83;21019;-64
2022/05/24 04:52:31;;;;;;;22.73;13.50;;;;;;;14.23;100.00;99241.15;1738863;81;21055;-64
2022/05/24 04:54:57;;;;;;;21.00;12.98;;;;;;;14.57;100.00;99239.30;1737242;81;21015;-65
2022/05/24 04:57:24;;;;;;;23.83;13.58;;;;;;;14.88;100.00;99240.73;1740308;81;21035;-65
2022/05/24 04:59:50;;;;;;;21.00;13.08;;;;;;;15.11;100.00;99251.95;1739825;82;21526;-59
2022/05/24 05:02:19;;;;;;;23.15;13.05;;;;;;;15.25;100.00;99252.68;1751365;81;21645;-67
2022/05/24 05:04:46;;;;;;;19.77;12.60;;;;;;;15.42;100.00;99240.43;1748119;81;21024;-63
2022/05/24 05:07:16;;;;;;;22.00;12.63;;;;;;;15.52;100.00;99238.58;1742150;80;21089;-62
2022/05/24 05:09:43;;;;;;;17.98;11.97;;;;;;;15.64;100.00;99245.08;1755139;81;20986;-65
2022/05/24 05:12:10;;;;;;;;;;;;;;;15.89;100.00;99242.99;1756159;81;21026;-62
2022/05/24 05:14:39;;;;;;;20.92;12.63;;;;;;;16.07;100.00;99240.28;1755841;81;20116;-62
2022/05/24 05:17:08;;;;;;;20.27;12.98;;;;;;;16.05;100.00;99246.09;1749919;80;21082;-60
2022/05/24 05:19:36;;;;;;;22.40;13.08;;;;;;;16.15;100.00;99241.70;1751313;81;21547;-61
2022/05/24 05:22:03;;;;;;;21.97;12.50;;;;;;;16.35;100.00;99246.56;1747360;80;21192;-62
2022/05/24 05:24:30;;;;;;;20.65;12.03;;;;;;;16.51;93.41;99248.84;1727320;82;21098;-61
2022/05/24 05:26:57;;;;;;;20.45;12.60;;;;;;;16.61;93.85;99245.81;1745978;81;21093;-62
2022/05/24 05:32:19;;;;;;;19.52;10.60;;;;;;;16.70;98.04;99252.91;1753688;81;21125;-65
2022/05/24 05:34:47;;;;;;;15.75;10.30;;;;;;;16.82;89.25;99249.52;1741590;81;20980;-64
2022/05/24 05:37:14;;;;;;;19.23;11.78;;;;;;;16.97;75.74;99251.75;1749085;80;21035;-64
2022/05/24 05:39:41;;;;;;;16.90;9.70;;;;;;;17.21;75.47;99253.44;1728475;81;21514;-64
2022/05/24 05:42:09;;;;;;;15.40;10.30;;;;;;;17.49;80.57;99253.03;1752319;81;20999;-65
2022/05/24 05:44:36;;;;;;;19.32;9.60;;;;;;;17.74;66.97;99243.90;1748064;81;21031;-64
2022/05/24 05:47:03;;;;;;;14.85;10.45;;;;;;;17.91;63.29;99249.32;1748711;82;21089;-64
2022/05/24 05:49:32;;;;;;;11.57;7.12;;;;;;;17.90;56.07;99244.95;1754968;82;20955;-63
2022/05/24 05:51:58;;;;;;;12.37;6.87;;;;;;;17.74;49.66;99239.77;1754525;80;21039;-64
2022/05/24 05:54:25;;;;;;;12.53;8.23;;;;;;;17.73;51.22;99247.78;1754515;81;20939;-64
2022/05/24 05:56:52;;;;;;;14.83;9.35;;;;;;;17.78;48.61;99254.50;1732222;81;21051;-65
2022/05/24 05:59:18;;;;;;;12.78;7.97;;;;;;;17.78;49.08;99254.50;1723365;83;21086;-65
2022/05/24 06:01:46;;;;;;;15.32;8.15;;;;;;;18.00;48.91;99252.02;1718826;82;21068;-64
2022/05/24 06:04:13;;;;;;;12.03;7.42;;;;;;;18.14;49.76;99257.53;1734017;81;21517;-64
2022/05/24 06:06:41;;;;;;;14.23;7.75;;;;;;;18.35;44.78;99256.20;1749104;80;21096;-63
2022/05/24 06:09:08;;;;;;;11.68;6.92;;;;;;;18.42;43.98;99257.05;1751886;82;21563;-63
2022/05/24 06:11:34;;;;;;;12.43;7.10;;;;;;;18.39;43.08;99255.18;1725498;82;21133;-63
2022/05/24 06:14:03;;;;;;;10.53;6.33;;;;;;;18.55;43.76;99256.81;1743436;81;21023;-63
2022/05/24 06:16:29;;;;;;;12.73;6.80;;;;;;;18.79;39.31;99254.75;1744357;81;21087;-63
2022/05/24 06:18:56;;;;;;;9.25;5.42;;;;;;;18.59;38.10;99258.33;1731482;81;21004;-62
2022/05/24 06:21:23;;;;;;;12.07;5.92;;;;;;;18.37;38.35;99264.37;1734240;81;21118;-64
2022/05/24 06:23:50;;;;;;;10.38;5.92;;;;;;;18.21;37.96;99255.65;1723552;81;21047;-65
2022/05/24 06:26:20;;;;;;;10.98;6.17;;;;;;;18.18;37.10;99261.80;1738998;81;21114;-61
2022/05/24 06:28:48;;;;;;;9.00;5.47;;;;;;;18.01;38.65;99261.33;1725429;82;21032;-61
2022/05/24 06:31:14;;;;;;;9.00;4.70;;;;;;;18.06;38.52;99263.91;1717501;82;21116;-62
2022/05/24 06:33:43;;;;;;;11.57;4.85;;;;;;;18.12;37.54;99265.89;1741638;81;21007;-62
2022/05/24 06:36:11;;;;;;;6.05;3.65;;;;;;;18.14;37.78;99266.39;1745343;81;21055;-63
2022/05/24 06:38:37;;;;;;;6.70;3.70;;;;;;;18.29;37.07;99263.03;1747853;81;20959;-63
2022/05/24 06:41:04;;;;;;;6.83;3.22;;;;;;;18.43;36.86;99264.15;1739664;81;20987;-62
2022/05/24 06:43:33;;;;;;;5.70;3.22;;;;;;;18.55;35.09;99261.52;1746863;82;20956;-62
2022/05/24 06:45:59;;;;;;;8.85;3.60;;;;;;;18.65;35.90;99259.73;1744500;81;21055;-62
2022/05/24 06:48:28;;;;;;;7.35;3.20;;;;;;;18.89;35.53;99262.04;1746907;81;20959;-63
2022/05/24 06:50:55;;;;;;;7.25;3.00;;;;;;;18.97;35.18;99262.30;1725732;81;21098;-62
2022/05/24 06:53:21;;;;;;;4.25;2.02;;;;;;;19.02;34.98;99250.50;1740681;81;20959;-63
2022/05/24 06:55:47;;;;;;;5.12;2.02;;;;;;;19.37;32.40;99258.66;1740814;81;21484;-61
2022/05/24 06:58:14;;;;;;;4.25;2.10;;;;;;;19.26;32.04;99260.80;1731099;81;21357;-61
2022/05/24 07:03:27;;;;;;;5.33;2.37;;;;;;;18.91;31.61;99276.07;1746922;82;21498;-62
2022/05/24 07:05:54;;;;;;;4.47;2.15;;;;;;;18.79;31.40;99261.64;1745432;81;21046;-64
2022/05/24 07:08:20;;;;;;;3.58;1.80;;;;;;;18.65;31.41;99264.68;1744972;81;21010;-63
2022/05/24 07:10:48;;;;;;;5.15;1.85;;;;;;;18.50;31.83;99264.42;1749077;81;21054;-65
2022/05/24 07:13:18;;;;;;;5.42;1.67;;;;;;;18.55;32.24;99267.03;1734463;81;20967;-64
2022/05/24 07:15:46;;;;;;;5.97;1.67;;;;;;;18.65;31.33;99269.37;1744445;81;21060;-65
2022/05/24 07:18:13;;;;;;;4.05;1.75;;;;;;;18.67;32.17;99267.11;1738127;81;21029;-65
2022/05/24 07:20:41;;;;;;;4.17;1.82;;;;;;;18.87;32.45;99273.18;1739412;81;21546;-65
2022/05/24 07:23:15;;;;;;;3.55;1.77;;;;;;;19.00;31.33;99276.22;1746860;82;21057;-66
2022/05/24 07:25:44;;;;;;;3.80;1.40;;;;;;;19.04;33.11;99277.16;1746110;81;21613;-65
2022/05/24 07:28:12;;;;;;;4.78;2.12;;;;;;;19.35;31.98;99280.83;1737708;81;21051;-64
2022/05/24 07:30:39;;;;;;;2.83;1.40;;;;;;;19.49;31.02;99276.41;1739183;81;21017;-64
2022/05/24 07:33:06;;;;;;;3.15;1.72;;;;;;;19.48;30.85;99277.58;1742459;81;21008;-63
2022/05/24 07:35:32;;;;;;;5.25;1.60;;;;;;;19.54;30.54;99281.72;1746848;81;21021;-63
2022/05/24 07:37:59;;;;;;;5.00;1.70;;;;;;;19.57;31.75;99287.94;1746254;81;21038;-61
2022/05/24 07:45:59;;;;;;;3.08;1.72;;;;;;;19.65;30.83;99278.76;1716693;82;21027;-63
2022/05/24 07:48:26;;;;;;;3.58;1.72;;;;;;;19.69;31.24;99288.78;1743475;81;21456;-61
2022/05/24 07:50:53;;;;;;;4.40;1.60;;;;;;;19.90;30.65;99292.02;1721698;82;21027;-63
2022/05/24 07:53:20;;;;;;;3.95;1.77;;;;;;;19.78;29.17;99282.57;1733338;82;20991;-60
2022/05/24 07:55:46;;;;;;;3.37;1.35;;;;;;;19.56;29.44;99276.66;1739122;82;21191;-62
2022/05/24 07:58:14;;;;;;;3.35;1.65;;;;;;;19.73;31.09;99283.38;1746325;81;20979;-61
2022/05/24 08:00:41;;;;;;;3.05;1.30;;;;;;;20.07;30.90;99276.60;1741870;81;21001;-62
2022/05/24 08:03:08;;;;;;;2.55;1.45;;;;;;;20.01;29.82;99273.85;1752491;82;21522;-61
2022/05/24 08:05:35;;;;;;;4.40;1.45;;;;;;;20.01;29.75;99277.99;1754903;80;21050;-61
2022/05/24 08:08:01;;;;;;;1.92;1.12;;;;;;;20.23;29.09;99281.08;1754061;81;20975;-61
2022/05/24 08:10:29;;;;;;;2.35;1.15;;;;;;;20.20;28.34;99281.78;1750213;81;21563;-60
2022/05/24 08:12:57;;;;;;;2.55;1.20;;;;;;;20.07;29.74;99283.51;1742083;81;21109;-62
2022/05/24 08:15:25;;;;;;;3.25;1.00;;;;;;;20.09;29.68;99285.34;1742576;81;21144;-61
2022/05/24 08:17:52;;;;;;;2.15;0.98;;;;;;;19.98;30.23;99289.13;1748083;81;21546;-61
2022/05/24 08:20:19;;;;;;;2.95;1.00;;;;;;;20.13;31.15;99279.36;1754213;80;21635;-60
2022/05/24 08:22:46;;;;;;;5.95;1.72;;;;;;;20.33;29.29;99277.09;1748994;81;21023;-61
2022/05/24 08:25:13;;;;;;;6.10;1.37;;;;;;;20.57;29.62;99270.72;1752395;80;21561;-61
2022/05/24 08:27:39;;;;;;;3.72;1.20;;;;;;;20.57;29.62;99270.72;1754757;82;21027;-63
2022/05/24 08:30:07;;;;;;;6.78;1.10;;;;;;;20.79;30.30;99270.20;1759331;80;20956;-64
2022/05/24 08:32:35;;;;;;;3.05;1.10;;;;;;;20.98;29.09;99268.16;1731979;81;20998;-63
2022/05/24 08:35:01;;;;;;;1.52;1.10;;;;;;;21.12;31.30;99269.41;1730620;81;21423;-64
2022/05/24 08:37:29;;;;;;;3.33;1.10;;;;;;;21.28;28.75;99268.08;1753680;81;21023;-62
2022/05/24 08:39:57;;;;;;;4.00;1.40;;;;;;;21.21;28.45;99269.27;1753891;81;20998;-62
2022/05/24 08:42:58;;;;;;;5.83;1.47;;;;;;;20.94;29.97;99272.81;1754068;80;21578;-62
2022/05/24 08:48:48;;;;;;;6.75;1.55;;;;;;;20.96;29.11;99269.91;1746530;82;21631;-62
2022/05/24 08:51:39;;;;;;;5.33;2.30;;;;;;;20.85;29.06;99270.98;1722537;80;21027;-61
2022/05/24 08:54:14;;;;;;;5.47;1.87;;;;;;;20.85;29.06;99270.98;1750655;81;21441;-62
2022/05/24 08:56:50;;;;;;;5.25;1.50;;;;;;;20.55;29.75;99270.23;1755106;81;21075;-63
2022/05/24 08:59:29;;;;;;;4.00;1.80;;;;;;;20.77;30.45;99266.97;1753233;81;20987;-63
2022/05/24 09:01:56;;;;;;;2.90;1.50;;;;;;;21.03;29.66;99268.73;1739754;81;21077;-61
2022/05/24 09:04:23;;;;;;;3.90;1.40;;;;;;;21.18;28.98;99266.63;1711602;82;21027;-63
2022/05/24 09:07:17;;;;;;;3.67;1.70;;;;;;;21.19;28.10;99263.25;1708946;82;21142;-62
2022/05/24 09:10:07;;;;;;;5.90;1.40;;;;;;;20.98;29.36;99263.44;1706624;82;21075;-59
2022/05/24 09:13:12;;;;;;;6.80;2.30;;;;;;;20.77;29.14;99269.73;1712129;82;21114;-61
2022/05/24 09:16:17;;;;;;;4.35;1.60;;;;;;;20.66;30.33;99266.65;1652794;85;21080;-61
2022/05/24 09:19:15;;;;;;;3.85;1.40;;;;;;;20.38;29.57;99260.83;1695945;83;21043;-62
2022/05/24 09:21:43;;;;;;;2.75;1.45;;;;;;;20.16;29.36;99262.89;1715025;81;21086;-62
2022/05/24 09:24:18;;;;;;;3.55;1.40;;;;;;;20.03;30.46;99257.15;1706046;83;21556;-61
2022/05/24 09:27:09;;;;;;;3.33;1.47;;;;;;;20.06;31.24;99262.55;1703764;82;21090;-60
2022/05/24 09:29:42;;;;;;;4.55;3.37;;;;;;;20.02;31.24;99259.67;1624623;88;21067;-60
2022/05/24 09:32:09;;;;;;;3.75;1.65;;;;;;;19.87;30.36;99259.00;1695662;82;21581;-61
2022/05/24 09:34:37;;;;;;;4.37;1.82;;;;;;;19.70;30.53;99260.00;1704456;83;20955;-61
2022/05/24 09:37:24;;;;;;;5.22;1.50;;;;;;;19.60;31.01;99270.68;1716658;81;21059;-60
2022/05/24 09:40:06;;;;;;;3.87;1.57;;;;;;;19.47;31.64;99265.72;1714429;83;21550;-59
2022/05/24 09:42:36;;;;;;;7.28;1.82;;;;;;;19.47;32.77;99271.81;1713252;82;21062;-60
2022/05/24 09:45:15;;;;;;;3.75;1.62;;;;;;;19.37;32.54;99268.89;1715017;82;21002;-59
2022/05/24 09:47:50;;;;;;;2.80;1.65;;;;;;;19.26;32.46;99267.70;1682366;82;21047;-59
2022/05/24 09:50:37;;;;;;;5.40;1.82;;;;;;;19.13;30.87;99259.94;1697198;82;21433;-59
2022/05/24 09:53:19;;;;;;;5.65;2.00;;;;;;;19.01;31.71;99270.14;1706228;82;21061;-60
2022/05/24 09:55:59;;;;;;;7.20;1.90;;;;;;;18.86;30.92;99264.09;1705403;83;21130;-60
2022/05/24 09:58:39;;;;;;;4.10;1.70;;;;;;;18.75;31.35;99268.97;1705497;83;21038;-61
2022/05/24 10:01:16;;;;;;;3.22;2.00;;;;;;;18.63;32.09;99266.98;1704180;83;21007;-60
2022/05/24 10:03:48;;;;;;;3.20;1.62;;;;;;;18.59;32.70;99256.95;1727349;81;21087;-60
2022/05/24 10:06:29;;;;;;;2.95;1.65;;;;;;;18.59;32.30;99257.77;1735531;81;21035;-59
2022/05/24 10:09:04;;;;;;;3.42;1.75;;;;;;;18.63;31.35;99260.09;1692540;83;21105;-60
2022/05/24 10:11:45;;;;;;;3.75;1.60;;;;;;;18.63;31.93;99252.38;1690931;83;21063;-60
2022/05/24 10:14:40;;;;;;;4.90;1.45;;;;;;;18.73;32.65;99234.05;1693966;83;21530;-60
2022/05/24 10:17:16;;;;;;;2.75;1.52;;;;;;;18.95;34.29;99251.63;1739820;82;21095;-61
2022/05/24 10:20:14;;;;;;;3.27;1.45;;;;;;;19.01;33.16;99246.13;1726193;81;21584;-61
2022/05/24 10:23:02;;;;;;;5.03;1.65;;;;;;;19.02;33.46;99246.36;1757293;81;21066;-62
2022/05/24 10:25:46;;;;;;;3.72;1.72;;;;;;;19.07;33.66;99248.89;1739363;81;21088;-60
2022/05/24 10:28:55;;;;;;;4.95;2.05;;;;;;;19.14;33.58;99251.09;1736650;81;21055;-62
2022/05/24 10:31:47;;;;;;;3.85;1.55;;;;;;;19.10;32.94;99248.78;1727773;81;21054;-62
2022/05/24 10:38:20;;;;;;;5.03;1.92;;;;;;;19.05;33.80;99259.47;1736244;81;21665;-61
2022/05/24 10:41:27;;;;;;;5.00;1.47;;;;;;;19.04;32.15;99253.72;1738378;81;21020;-61
2022/05/24 10:44:05;;;;;;;3.05;1.60;;;;;;;18.94;32.01;99236.78;1737624;81;21491;-61
2022/05/24 10:46:40;;;;;;;5.10;1.20;;;;;;;19.00;34.39;99233.47;1738730;82;21115;-62
2022/05/24 10:49:30;;;;;;;2.72;1.60;;;;;;;19.20;32.40;99243.64;1722556;81;21063;-60
2022/05/24 10:52:10;;;;;;;3.75;1.70;;;;;;;19.27;32.47;99241.13;1735105;81;21060;-61
2022/05/24 10:54:46;;;;;;;4.15;1.30;;;;;;;19.25;31.96;99240.68;1736875;81;21055;-61
2022/05/24 10:57:20;;;;;;;;;;;;;;;19.20;31.27;99240.10;1736125;81;21099;-62
2022/05/24 11:00:01;;;;;;;3.95;1.20;;;;;;;19.14;32.28;99230.41;1744043;81;20147;-62
2022/05/24 11:03:09;;;;;;;3.08;1.20;;;;;;;19.12;31.97;99224.44;1739902;82;21094;-63
2022/05/24 11:05:43;;;;;;;3.00;1.47;;;;;;;19.16;31.89;99228.94;1748913;80;21107;-62
2022/05/24 11:08:48;;;;;;;3.70;1.40;;;;;;;19.25;32.13;99232.97;1743062;81;21038;-62
2022/05/24 11:11:41;;;;;;;3.12;1.42;;;;;;;19.32;33.98;99232.65;1712433;82;21603;-62
2022/05/24 11:17:23;;;;;;;4.95;1.60;;;;;;;19.46;35.60;99226.84;1782911;79;22858;-61
2022/05/24 11:19:51;;;;;;;4.12;1.85;;;;;;;19.55;34.85;99223.98;1750548;80;20994;-62
2022/05/24 11:22:38;;;;;;;5.40;2.22;;;;;;;19.67;35.27;99222.03;1750379;81;21058;-64
2022/05/24 11:25:25;;;;;;;4.97;2.00;;;;;;;19.79;34.13;99226.77;1740652;81;21067;-65
2022/05/24 11:28:07;;;;;;;5.30;1.77;;;;;;;19.83;33.01;99225.74;1758771;80;21063;-62
2022/05/24 11:30:39;;;;;;;4.00;1.90;;;;;;;19.87;33.35;99234.92;1757210;80;21161;-64
2022/05/24 11:33:17;;;;;;;6.30;2.15;;;;;;;19.88;33.03;99229.64;1752703;80;21050;-63
2022/05/24 11:35:52;;;;;;;3.83;1.72;;;;;;;19.73;32.24;99228.93;1758827;81;22525;-62
2022/05/24 11:38:23;;;;;;;3.25;1.70;;;;;;;19.62;32.45;99235.27;1731950;81;21438;-62
2022/05/24 11:41:04;;;;;;;4.85;1.60;;;;;;;19.59;33.01;99236.73;1756688;81;21106;-63
2022/05/24 11:43:44;;;;;;;3.42;1.72;;;;;;;19.56;32.31;99229.72;1753998;81;20971;-63
2022/05/24 11:46:37;;;;;;;3.42;1.72;;;;;;;19.54;32.70;99232.84;1746991;81;21027;-63
2022/05/24 11:49:12;;;;;;;5.03;1.82;;;;;;;19.55;32.47;99230.32;1746199;81;20982;-63
2022/05/24 11:51:46;;;;;;;4.70;1.87;;;;;;;19.59;32.68;99236.73;1737612;80;21202;-63
2022/05/24 11:54:22;;;;;;;4.53;1.80;;;;;;;19.64;33.50;99231.58;1715877;83;21046;-63
2022/05/24 11:57:06;;;;;;;2.52;1.72;;;;;;;19.75;33.17;99225.27;1686637;83;21091;-63
2022/05/24 11:59:48;;;;;;;3.55;1.62;;;;;;;19.91;33.10;99225.37;1701604;84;21048;-63
2022/05/24 12:07:54;;;;;;;4.45;1.90;;;;;;;20.06;32.16;99228.83;1677827;84;21082;-63
2022/05/24 12:08:31;;;;;;;3.90;1.77;;;;;;;20.05;30.90;99225.82;1672541;84;21072;-63
2022/05/24 12:11:17;;;;;;;4.10;2.25;;;;;;;19.95;31.77;99229.05;1709450;81;21092;-62
2022/05/24 12:13:56;;;;;;;5.30;2.12;;;;;;;19.92;32.54;99229.75;1729183;81;21036;-62
2022/05/24 12:16:46;;;;;;;5.92;2.17;;;;;;;19.89;32.42;99238.73;1717794;83;21049;-62
2022/05/24 12:19:43;;;;;;;4.35;2.42;;;;;;;19.77;32.78;99235.95;1717153;83;21049;-62
2022/05/24 12:22:31;;;;;;;4.22;1.92;;;;;;;19.66;33.10;99236.98;1675733;83;21108;-62
2022/05/24 12:25:02;;;;;;;6.67;2.40;;;;;;;19.69;34.90;99229.41;1714789;82;21575;-63
2022/05/24 12:27:50;;;;;;;7.92;2.60;;;;;;;19.83;34.99;99229.88;1699674;83;21084;-64
2022/05/24 12:30:35;;;;;;;5.58;2.02;;;;;;;20.01;34.52;99231.84;1712623;83;21507;-64